sensor_id;sensor_type;location;lat;lon;timestamp;pressure;altitude;pressure_sealevel;temperature;humidity
69173;BME280;56280;49.662;8.408;2023-04-01T00:00:30;99110.03;;;11.28;68.02
69173;BME280;56280;49.662;8.408;2023-04-01T00:02:56;99075.31;;;11.29;67.58
69173;BME280;56280;49.662;8.408;2023-04-01T00:05:22;99089.25;;;11.23;68.54
69173;BME280;56280;49.662;8.408;2023-04-01T00:07:49;99107.19;;;11.29;67.92
69173;BME280;56280;49.662;8.408;2023-04-01T00:10:14;99101.38;;;11.26;68.28
69173;BME280;56280;49.662;8.408;2023-04-01T00:12:40;99088.44;;;11.31;67.78
69173;BME280;56280;49.662;8.408;2023-04-01T00:15:07;99082.59;;;11.11;68.10
69173;BME280;56280;49.662;8.408;2023-04-01T00:17:33;99096.38;;;11.23;68.46
69173;BME280;56280;49.662;8.408;2023-04-01T00:19:59;99085.41;;;11.09;68.63
69173;BME280;56280;49.662;8.408;2023-04-01T00:22:25;99098.88;;;11.16;68.68
69173;BME280;56280;49.662;8.408;2023-04-01T00:24:51;99095.91;;;11.19;68.49
69173;BME280;56280;49.662;8.408;2023-04-01T00:27:17;99089.53;;;11.12;68.37
69173;BME280;56280;49.662;8.408;2023-04-01T00:29:43;99097.50;;;11.04;69.29
69173;BME280;56280;49.662;8.408;2023-04-01T00:32:08;99066.78;;;11.01;68.59
69173;BME280;56280;49.662;8.408;2023-04-01T00:34:34;99084.53;;;11.01;68.79
69173;BME280;56280;49.662;8.408;2023-04-01T00:36:59;99082.75;;;11.18;68.88
69173;BME280;56280;49.662;8.408;2023-04-01T00:39:25;99083.25;;;11.21;68.86
69173;BME280;56280;49.662;8.408;2023-04-01T00:41:53;99074.94;;;11.16;68.41
69173;BME280;56280;49.662;8.408;2023-04-01T00:44:24;99079.84;;;10.94;68.71
69173;BME280;56280;49.662;8.408;2023-04-01T00:46:49;99080.88;;;11.02;69.38
69173;BME280;56280;49.662;8.408;2023-04-01T00:49:19;99073.38;;;10.89;68.86
69173;BME280;56280;49.662;8.408;2023-04-01T00:51:47;99073.94;;;11.17;68.64
69173;BME280;56280;49.662;8.408;2023-04-01T00:54:14;99086.56;;;11.15;68.58
69173;BME280;56280;49.662;8.408;2023-04-01T00:56:50;99087.94;;;11.27;68.60
69173;BME280;56280;49.662;8.408;2023-04-01T00:59:23;99092.94;;;11.30;68.48
69173;BME280;56280;49.662;8.408;2023-04-01T01:01:49;99077.06;;;11.04;68.50
69173;BME280;56280;49.662;8.408;2023-04-01T01:04:27;99071.25;;;11.01;68.83
69173;BME280;56280;49.662;8.408;2023-04-01T01:18:29;99076.75;;;11.07;68.10
69173;BME280;56280;49.662;8.408;2023-04-01T01:32:05;99046.59;;;10.74;69.37
69173;BME280;56280;49.662;8.408;2023-04-01T01:37:25;99052.28;;;10.87;69.02
69173;BME280;56280;49.662;8.408;2023-04-01T01:40:01;99063.22;;;10.84;69.58
69173;BME280;56280;49.662;8.408;2023-04-01T01:42:30;99051.31;;;10.88;69.53
69173;BME280;56280;49.662;8.408;2023-04-01T01:44:57;99042.59;;;10.70;69.03
69173;BME280;56280;49.662;8.408;2023-04-01T01:47:25;99046.28;;;10.77;69.33
69173;BME280;56280;49.662;8.408;2023-04-01T01:49:51;99044.94;;;10.81;69.27
69173;BME280;56280;49.662;8.408;2023-04-01T01:52:18;99015.34;;;10.60;69.39
69173;BME280;56280;49.662;8.408;2023-04-01T01:54:54;99058.13;;;10.99;69.34
69173;BME280;56280;49.662;8.408;2023-04-01T01:57:24;99053.09;;;10.88;69.66
69173;BME280;56280;49.662;8.408;2023-04-01T01:59:52;99038.22;;;11.03;69.37
69173;BME280;56280;49.662;8.408;2023-04-01T02:02:21;99059.63;;;10.93;69.75
69173;BME280;56280;49.662;8.408;2023-04-01T02:04:48;99042.59;;;10.70;70.09
69173;BME280;56280;49.662;8.408;2023-04-01T02:07:19;99043.41;;;10.70;70.59
69173;BME280;56280;49.662;8.408;2023-04-01T02:09:47;99058.53;;;10.70;71.05
69173;BME280;56280;49.662;8.408;2023-04-01T02:12:14;99068.03;;;10.81;70.43
69173;BME280;56280;49.662;8.408;2023-04-01T02:14:58;99055.25;;;10.84;69.89
69173;BME280;56280;49.662;8.408;2023-04-01T02:17:29;99047.94;;;10.78;70.23
69173;BME280;56280;49.662;8.408;2023-04-01T02:19:58;99057.53;;;10.71;70.48
69173;BME280;56280;49.662;8.408;2023-04-01T02:22:28;99061.94;;;10.88;69.68
69173;BME280;56280;49.662;8.408;2023-04-01T02:24:57;99039.50;;;10.91;69.67
69173;BME280;56280;49.662;8.408;2023-04-01T02:27:23;99054.78;;;10.89;69.93
69173;BME280;56280;49.662;8.408;2023-04-01T02:29:50;99071.06;;;10.94;69.25
69173;BME280;56280;49.662;8.408;2023-04-01T02:32:16;99039.69;;;10.98;69.25
69173;BME280;56280;49.662;8.408;2023-04-01T02:34:43;99075.84;;;10.82;70.35
69173;BME280;56280;49.662;8.408;2023-04-01T02:37:08;99066.56;;;10.94;70.31
69173;BME280;56280;49.662;8.408;2023-04-01T02:39:33;99070.50;;;10.74;70.73
69173;BME280;56280;49.662;8.408;2023-04-01T02:41:59;99067.78;;;10.66;70.56
69173;BME280;56280;49.662;8.408;2023-04-01T02:44:25;99061.53;;;10.75;70.88
69173;BME280;56280;49.662;8.408;2023-04-01T02:46:51;99057.72;;;10.77;70.86
69173;BME280;56280;49.662;8.408;2023-04-01T02:49:16;99066.47;;;10.62;71.69
69173;BME280;56280;49.662;8.408;2023-04-01T02:51:41;99048.19;;;10.58;71.64
69173;BME280;56280;49.662;8.408;2023-04-01T02:54:06;99062.47;;;10.66;72.28
69173;BME280;56280;49.662;8.408;2023-04-01T02:56:32;99049.50;;;10.54;72.27
69173;BME280;56280;49.662;8.408;2023-04-01T02:58:57;99042.16;;;10.40;72.19
69173;BME280;56280;49.662;8.408;2023-04-01T03:01:22;99063.19;;;10.42;73.07
69173;BME280;56280;49.662;8.408;2023-04-01T03:03:48;99056.94;;;10.51;72.68
69173;BME280;56280;49.662;8.408;2023-04-01T03:06:15;99061.13;;;10.53;73.05
69173;BME280;56280;49.662;8.408;2023-04-01T03:08:41;99062.28;;;10.59;73.42
69173;BME280;56280;49.662;8.408;2023-04-01T03:11:07;99062.81;;;10.63;72.58
69173;BME280;56280;49.662;8.408;2023-04-01T03:13:32;99048.09;;;10.34;73.35
69173;BME280;56280;49.662;8.408;2023-04-01T03:15:58;99066.66;;;10.68;72.69
69173;BME280;56280;49.662;8.408;2023-04-01T03:18:23;99059.59;;;10.51;73.35
69173;BME280;56280;49.662;8.408;2023-04-01T03:20:48;99059.78;;;10.57;72.95
69173;BME280;56280;49.662;8.408;2023-04-01T03:23:14;99061.81;;;10.64;72.73
69173;BME280;56280;49.662;8.408;2023-04-01T03:25:42;99068.91;;;10.47;72.89
69173;BME280;56280;49.662;8.408;2023-04-01T03:28:08;99055.97;;;10.26;73.27
69173;BME280;56280;49.662;8.408;2023-04-01T03:30:33;99051.28;;;10.46;72.55
69173;BME280;56280;49.662;8.408;2023-04-01T03:32:59;99075.88;;;10.56;73.14
69173;BME280;56280;49.662;8.408;2023-04-01T03:35:27;99073.03;;;10.49;72.88
69173;BME280;56280;49.662;8.408;2023-04-01T03:37:53;99073.38;;;10.54;72.98
69173;BME280;56280;49.662;8.408;2023-04-01T03:40:19;99064.09;;;10.50;72.49
69173;BME280;56280;49.662;8.408;2023-04-01T03:42:45;99054.09;;;10.44;72.40
69173;BME280;56280;49.662;8.408;2023-04-01T03:45:11;99079.09;;;10.60;72.15
69173;BME280;56280;49.662;8.408;2023-04-01T03:47:37;99063.69;;;10.71;71.60
69173;BME280;56280;49.662;8.408;2023-04-01T03:50:03;99063.34;;;10.66;71.97
69173;BME280;56280;49.662;8.408;2023-04-01T03:52:29;99060.53;;;10.68;71.43
69173;BME280;56280;49.662;8.408;2023-04-01T03:54:54;99062.59;;;10.56;71.30
69173;BME280;56280;49.662;8.408;2023-04-01T03:57:20;99062.59;;;10.56;71.08
69173;BME280;56280;49.662;8.408;2023-04-01T03:59:45;99052.88;;;10.65;71.27
69173;BME280;56280;49.662;8.408;2023-04-01T04:02:10;99068.66;;;10.66;71.44
69173;BME280;56280;49.662;8.408;2023-04-01T04:04:35;99076.09;;;10.63;71.41
69173;BME280;56280;49.662;8.408;2023-04-01T04:07:01;99065.84;;;10.76;70.52
69173;BME280;56280;49.662;8.408;2023-04-01T04:09:26;99079.00;;;10.86;69.96
69173;BME280;56280;49.662;8.408;2023-04-01T04:11:51;99064.75;;;10.87;70.17
69173;BME280;56280;49.662;8.408;2023-04-01T04:14:17;99057.13;;;10.92;69.75
69173;BME280;56280;49.662;8.408;2023-04-01T04:16:42;99075.25;;;10.97;69.80
69173;BME280;56280;49.662;8.408;2023-04-01T04:19:08;99066.38;;;10.80;69.60
69173;BME280;56280;49.662;8.408;2023-04-01T04:21:33;99066.38;;;10.80;70.14
69173;BME280;56280;49.662;8.408;2023-04-01T04:23:59;99058.22;;;10.73;70.42
69173;BME280;56280;49.662;8.408;2023-04-01T04:26:25;99076.50;;;10.84;70.24
69173;BME280;56280;49.662;8.408;2023-04-01T04:28:51;99074.00;;;10.83;71.07
69173;BME280;56280;49.662;8.408;2023-04-01T04:31:20;99047.31;;;10.92;69.80
69173;BME280;56280;49.662;8.408;2023-04-01T04:33:46;99069.19;;;10.78;70.14
69173;BME280;56280;49.662;8.408;2023-04-01T04:36:11;99058.53;;;10.70;70.40
69173;BME280;56280;49.662;8.408;2023-04-01T04:38:36;99048.28;;;10.91;70.66
69173;BME280;56280;49.662;8.408;2023-04-01T04:41:02;99049.66;;;11.04;70.08
69173;BME280;56280;49.662;8.408;2023-04-01T04:43:27;99060.94;;;11.06;69.42
69173;BME280;56280;49.662;8.408;2023-04-01T04:45:52;99059.94;;;10.99;70.12
69173;BME280;56280;49.662;8.408;2023-04-01T04:48:18;99071.41;;;10.99;70.38
69173;BME280;56280;49.662;8.408;2023-04-01T04:50:49;99073.44;;;11.13;69.94
69173;BME280;56280;49.662;8.408;2023-04-01T04:53:16;99058.25;;;10.81;70.56
69173;BME280;56280;49.662;8.408;2023-04-01T04:55:44;99070.25;;;11.02;70.53
69173;BME280;56280;49.662;8.408;2023-04-01T04:58:10;99065.53;;;10.79;70.59
69173;BME280;56280;49.662;8.408;2023-04-01T05:00:35;99069.72;;;10.90;70.89
69173;BME280;56280;49.662;8.408;2023-04-01T05:03:00;99043.41;;;10.70;71.26
69173;BME280;56280;49.662;8.408;2023-04-01T05:05:25;99060.22;;;10.79;71.33
69173;BME280;56280;49.662;8.408;2023-04-01T05:07:51;99066.22;;;10.89;71.83
69173;BME280;56280;49.662;8.408;2023-04-01T05:10:16;99081.06;;;11.00;71.58
69173;BME280;56280;49.662;8.408;2023-04-01T05:12:42;99057.44;;;10.89;71.05
69173;BME280;56280;49.662;8.408;2023-04-01T05:15:08;99076.38;;;10.94;71.58
69173;BME280;56280;49.662;8.408;2023-04-01T05:17:34;99071.75;;;11.04;71.28
69173;BME280;56280;49.662;8.408;2023-04-01T05:19:59;99056.81;;;10.61;71.82
69173;BME280;56280;49.662;8.408;2023-04-01T05:22:25;99069.84;;;10.80;71.75
69173;BME280;56280;49.662;8.408;2023-04-01T05:24:51;99064.34;;;10.73;72.28
69173;BME280;56280;49.662;8.408;2023-04-01T05:27:17;99078.50;;;10.82;71.69
69173;BME280;56280;49.662;8.408;2023-04-01T05:29:43;99065.84;;;10.68;72.19
69173;BME280;56280;49.662;8.408;2023-04-01T05:32:08;98956.63;;;9.94;71.57
69173;BME280;56280;49.662;8.408;2023-04-01T05:34:34;99015.31;;;10.51;72.41
69173;BME280;56280;49.662;8.408;2023-04-01T05:37:00;99054.94;;;10.87;71.42
69173;BME280;56280;49.662;8.408;2023-04-01T05:39:26;98967.63;;;10.42;71.06
69173;BME280;56280;49.662;8.408;2023-04-01T05:41:52;98993.03;;;10.44;71.36
69173;BME280;56280;49.662;8.408;2023-04-01T05:44:18;99062.59;;;10.90;71.60
69173;BME280;56280;49.662;8.408;2023-04-01T05:46:44;99004.84;;;10.50;72.05
69173;BME280;56280;49.662;8.408;2023-04-01T05:49:10;99010.56;;;10.71;71.25
69173;BME280;56280;49.662;8.408;2023-04-01T05:51:37;98976.41;;;10.34;71.35
69173;BME280;56280;49.662;8.408;2023-04-01T05:54:04;99010.34;;;10.56;71.74
69173;BME280;56280;49.662;8.408;2023-04-01T05:56:30;99045.47;;;10.93;71.62
69173;BME280;56280;49.662;8.408;2023-04-01T05:58:55;98973.63;;;10.44;71.13
69173;BME280;56280;49.662;8.408;2023-04-01T06:01:20;99041.50;;;10.89;71.48
69173;BME280;56280;49.662;8.408;2023-04-01T06:03:46;99034.31;;;10.81;71.54
69173;BME280;56280;49.662;8.408;2023-04-01T06:06:18;99033.69;;;10.87;71.57
69173;BME280;56280;49.662;8.408;2023-04-01T06:08:45;99040.97;;;10.77;72.52
69173;BME280;56280;49.662;8.408;2023-04-01T06:11:16;99050.28;;;10.89;71.77
69173;BME280;56280;49.662;8.408;2023-04-01T06:14:16;99050.75;;;10.76;71.88
69173;BME280;56280;49.662;8.408;2023-04-01T06:27:36;99041.69;;;10.95;70.20
69173;BME280;56280;49.662;8.408;2023-04-01T06:35:38;99031.03;;;10.95;70.04
69173;BME280;56280;49.662;8.408;2023-04-01T06:38:38;99045.22;;;11.12;70.39
69173;BME280;56280;49.662;8.408;2023-04-01T06:46:44;99039.56;;;11.90;67.87
69173;BME280;56280;49.662;8.408;2023-04-01T06:49:28;99038.03;;;12.28;66.60
69173;BME280;56280;49.662;8.408;2023-04-01T06:52:06;99051.88;;;12.24;67.30
69173;BME280;56280;49.662;8.408;2023-04-01T06:54:40;99056.47;;;12.38;67.25
69173;BME280;56280;49.662;8.408;2023-04-01T06:57:31;99049.00;;;12.33;66.66
69173;BME280;56280;49.662;8.408;2023-04-01T07:00:00;99052.72;;;11.83;67.87
69173;BME280;56280;49.662;8.408;2023-04-01T07:03:35;99053.38;;;11.36;70.14
69173;BME280;56280;49.662;8.408;2023-04-01T07:05:35;99037.91;;;11.39;70.40
69173;BME280;56280;49.662;8.408;2023-04-01T07:08:11;99054.69;;;11.31;70.26
69173;BME280;56280;49.662;8.408;2023-04-01T07:13:15;99055.22;;;11.60;70.68
69173;BME280;56280;49.662;8.408;2023-04-01T07:15:54;99061.84;;;11.64;70.00
69173;BME280;56280;49.662;8.408;2023-04-01T07:18:34;99044.53;;;11.27;70.77
69173;BME280;56280;49.662;8.408;2023-04-01T07:21:02;99054.84;;;11.13;72.03
69173;BME280;56280;49.662;8.408;2023-04-01T07:23:33;99066.00;;;11.34;71.31
69173;BME280;56280;49.662;8.408;2023-04-01T07:26:18;99039.75;;;11.14;72.63
69173;BME280;56280;49.662;8.408;2023-04-01T07:28:44;99045.41;;;11.44;71.11
69173;BME280;56280;49.662;8.408;2023-04-01T07:36:48;99066.34;;;11.80;70.30
69173;BME280;56280;49.662;8.408;2023-04-01T07:39:25;99065.69;;;11.86;70.36
69173;BME280;56280;49.662;8.408;2023-04-01T07:50:30;99080.63;;;12.28;69.04
69173;BME280;56280;49.662;8.408;2023-04-01T07:52:50;99079.66;;;12.21;69.41
69173;BME280;56280;49.662;8.408;2023-04-01T07:58:07;99081.50;;;12.20;69.14
69173;BME280;56280;49.662;8.408;2023-04-01T08:00:54;99081.66;;;11.94;70.42
69173;BME280;56280;49.662;8.408;2023-04-01T08:03:29;99075.00;;;11.90;70.06
69173;BME280;56280;49.662;8.408;2023-04-01T08:06:13;99073.00;;;11.84;70.73
69173;BME280;56280;49.662;8.408;2023-04-01T08:17:02;99075.50;;;11.85;71.02
69173;BME280;56280;49.662;8.408;2023-04-01T08:20:08;99096.97;;;11.92;70.84
69173;BME280;56280;49.662;8.408;2023-04-01T08:22:42;99086.81;;;11.96;70.59
69173;BME280;56280;49.662;8.408;2023-04-01T08:25:37;99097.13;;;12.24;70.13
69173;BME280;56280;49.662;8.408;2023-04-01T08:28:17;99095.59;;;12.29;69.79
69173;BME280;56280;49.662;8.408;2023-04-01T08:30:52;99097.75;;;12.34;70.20
69173;BME280;56280;49.662;8.408;2023-04-01T08:33:27;99102.59;;;12.14;70.51
69173;BME280;56280;49.662;8.408;2023-04-01T08:38:39;99094.09;;;12.43;69.66
69173;BME280;56280;49.662;8.408;2023-04-01T08:44:28;99098.81;;;12.00;71.64
69173;BME280;56280;49.662;8.408;2023-04-01T08:47:19;99103.94;;;12.26;71.50
69173;BME280;56280;49.662;8.408;2023-04-01T08:49:53;99112.22;;;12.39;70.64
69173;BME280;56280;49.662;8.408;2023-04-01T09:06:26;99095.94;;;12.26;71.78
69173;BME280;56280;49.662;8.408;2023-04-01T09:20:24;99108.22;;;12.44;71.77
69173;BME280;56280;49.662;8.408;2023-04-01T09:23:25;99117.81;;;12.69;71.46
69173;BME280;56280;49.662;8.408;2023-04-01T09:28:42;99127.53;;;13.02;71.18
69173;BME280;56280;49.662;8.408;2023-04-01T09:31:38;99117.41;;;13.28;70.65
69173;BME280;56280;49.662;8.408;2023-04-01T09:34:25;99132.22;;;13.62;71.36
69173;BME280;56280;49.662;8.408;2023-04-01T09:39:56;99134.13;;;13.14;70.87
69173;BME280;56280;49.662;8.408;2023-04-01T09:48:15;99136.81;;;12.66;71.67
69173;BME280;56280;49.662;8.408;2023-04-01T09:51:00;99123.81;;;12.63;72.57
69173;BME280;56280;49.662;8.408;2023-04-01T09:56:23;99130.19;;;13.02;71.37
69173;BME280;56280;49.662;8.408;2023-04-01T10:04:35;99137.97;;;12.64;72.37
69173;BME280;56280;49.662;8.408;2023-04-01T10:07:17;99135.44;;;12.79;72.21
69173;BME280;56280;49.662;8.408;2023-04-01T10:10:23;99131.09;;;12.77;73.71
69173;BME280;56280;49.662;8.408;2023-04-01T10:12:58;99134.97;;;13.14;72.60
69173;BME280;56280;49.662;8.408;2023-04-01T10:55:37;99149.22;;;13.38;70.51
69173;BME280;56280;49.662;8.408;2023-04-01T11:04:06;99154.91;;;13.27;71.21
69173;BME280;56280;49.662;8.408;2023-04-01T11:12:51;99156.72;;;13.26;71.38
69173;BME280;56280;49.662;8.408;2023-04-01T11:15:45;99150.00;;;13.07;71.38
69173;BME280;56280;49.662;8.408;2023-04-01T11:18:22;99164.59;;;13.20;71.94
69173;BME280;56280;49.662;8.408;2023-04-01T11:27:01;99159.25;;;13.59;71.34
69173;BME280;56280;49.662;8.408;2023-04-01T11:32:39;99156.13;;;13.56;70.86
69173;BME280;56280;49.662;8.408;2023-04-01T11:46:48;99173.88;;;13.95;69.58
69173;BME280;56280;49.662;8.408;2023-04-01T11:49:36;99174.69;;;13.72;69.23
69173;BME280;56280;49.662;8.408;2023-04-01T11:52:46;99162.50;;;13.70;69.26
69173;BME280;56280;49.662;8.408;2023-04-01T11:55:19;99174.41;;;13.67;69.52
69173;BME280;56280;49.662;8.408;2023-04-01T12:09:23;99173.88;;;13.95;68.25
69173;BME280;56280;49.662;8.408;2023-04-01T12:25:52;99182.06;;;13.93;67.10
69173;BME280;56280;49.662;8.408;2023-04-01T12:31:37;99200.03;;;13.99;67.03
69173;BME280;56280;49.662;8.408;2023-04-01T12:42:41;99187.97;;;13.80;66.45
69173;BME280;56280;49.662;8.408;2023-04-01T12:45:27;99190.28;;;13.83;66.98
69173;BME280;56280;49.662;8.408;2023-04-01T12:53:43;99188.91;;;13.88;66.23
69173;BME280;56280;49.662;8.408;2023-04-01T12:56:23;99182.47;;;13.50;67.20
69173;BME280;56280;49.662;8.408;2023-04-01T13:02:00;99199.63;;;13.56;67.70
69173;BME280;56280;49.662;8.408;2023-04-01T13:15:33;99207.94;;;13.13;68.83
69173;BME280;56280;49.662;8.408;2023-04-01T13:21:09;99227.75;;;13.27;69.41
69173;BME280;56280;49.662;8.408;2023-04-01T13:24:04;99210.94;;;13.58;68.93
69173;BME280;56280;49.662;8.408;2023-04-01T13:26:44;99223.75;;;13.23;69.66
69173;BME280;56280;49.662;8.408;2023-04-01T13:29:21;99225.63;;;13.14;70.07
69173;BME280;56280;49.662;8.408;2023-04-01T13:31:57;99224.09;;;13.28;69.82
69173;BME280;56280;49.662;8.408;2023-04-01T13:34:46;99214.59;;;13.18;70.15
69173;BME280;56280;49.662;8.408;2023-04-01T13:43:04;99244.94;;;13.33;69.53
69173;BME280;56280;49.662;8.408;2023-04-01T14:02:56;99224.94;;;13.60;67.46
69173;BME280;56280;49.662;8.408;2023-04-01T14:05:38;99217.50;;;13.79;67.45
69173;BME280;56280;49.662;8.408;2023-04-01T14:11:04;99257.16;;;13.90;67.64
69173;BME280;56280;49.662;8.408;2023-04-01T14:28:07;99260.50;;;12.97;71.87
69173;BME280;56280;49.662;8.408;2023-04-01T14:36:01;99274.59;;;13.30;71.47
69173;BME280;56280;49.662;8.408;2023-04-01T14:38:36;99269.09;;;13.15;71.81
69173;BME280;56280;49.662;8.408;2023-04-01T14:41:20;99276.75;;;13.26;72.21
69173;BME280;56280;49.662;8.408;2023-04-01T14:50:26;99278.66;;;12.93;74.59
69173;BME280;56280;49.662;8.408;2023-04-01T14:55:30;99275.31;;;12.91;73.68
69173;BME280;56280;49.662;8.408;2023-04-01T14:58:07;99264.22;;;12.63;73.18
69173;BME280;56280;49.662;8.408;2023-04-01T15:03:20;99278.16;;;12.81;73.03
69173;BME280;56280;49.662;8.408;2023-04-01T15:05:56;99293.50;;;12.87;72.26
69173;BME280;56280;49.662;8.408;2023-04-01T15:08:26;99296.94;;;13.21;71.46
69173;BME280;56280;49.662;8.408;2023-04-01T15:14:20;99294.41;;;13.27;70.03
69173;BME280;56280;49.662;8.408;2023-04-01T15:22:20;99287.25;;;13.36;68.62
69173;BME280;56280;49.662;8.408;2023-04-01T15:30:28;99305.44;;;13.80;66.77
69173;BME280;56280;49.662;8.408;2023-04-01T15:38:38;99318.09;;;13.39;66.69
69173;BME280;56280;49.662;8.408;2023-04-01T15:41:14;99321.53;;;13.47;66.29
69173;BME280;56280;49.662;8.408;2023-04-01T15:43:44;99319.63;;;13.73;66.11
69173;BME280;56280;49.662;8.408;2023-04-01T15:49:18;99335.09;;;13.46;65.44
69173;BME280;56280;49.662;8.408;2023-04-01T15:57:51;99318.13;;;13.06;65.88
69173;BME280;56280;49.662;8.408;2023-04-01T16:00:29;99311.63;;;13.33;65.45
69173;BME280;56280;49.662;8.408;2023-04-01T16:05:44;99326.56;;;13.42;64.41
69173;BME280;56280;49.662;8.408;2023-04-01T16:14:44;99326.38;;;13.52;64.86
69173;BME280;56280;49.662;8.408;2023-04-01T16:23:02;99350.03;;;13.55;65.01
69173;BME280;56280;49.662;8.408;2023-04-01T16:25:35;99355.75;;;13.27;65.20
69173;BME280;56280;49.662;8.408;2023-04-01T16:28:15;99349.28;;;13.38;65.22
69173;BME280;56280;49.662;8.408;2023-04-01T16:30:50;99355.56;;;13.54;64.60
69173;BME280;56280;49.662;8.408;2023-04-01T16:33:47;99355.25;;;13.40;64.38
69173;BME280;56280;49.662;8.408;2023-04-01T16:36:53;99357.75;;;13.42;64.54
69173;BME280;56280;49.662;8.408;2023-04-01T16:39:47;99371.94;;;13.18;65.38
69173;BME280;56280;49.662;8.408;2023-04-01T16:42:24;99377.59;;;13.39;64.93
69173;BME280;56280;49.662;8.408;2023-04-01T16:47:26;99373.97;;;13.07;65.53
69173;BME280;56280;49.662;8.408;2023-04-01T16:49:59;99376.63;;;13.16;65.39
69173;BME280;56280;49.662;8.408;2023-04-01T16:55:47;99375.59;;;13.25;65.29
69173;BME280;56280;49.662;8.408;2023-04-01T16:58:21;99385.78;;;13.46;65.19
69173;BME280;56280;49.662;8.408;2023-04-01T17:00:50;99387.28;;;13.40;65.16
69173;BME280;56280;49.662;8.408;2023-04-01T17:03:32;99386.09;;;13.35;64.96
69173;BME280;56280;49.662;8.408;2023-04-01T17:06:11;99387.59;;;13.29;65.36
69173;BME280;56280;49.662;8.408;2023-04-01T17:08:56;99379.63;;;13.12;65.77
69173;BME280;56280;49.662;8.408;2023-04-01T17:11:38;99396.94;;;13.08;66.27
69173;BME280;56280;49.662;8.408;2023-04-01T17:16:48;99405.28;;;13.05;66.02
69173;BME280;56280;49.662;8.408;2023-04-01T17:19:37;99402.13;;;13.02;65.63
69173;BME280;56280;49.662;8.408;2023-04-01T17:22:43;99407.78;;;12.99;66.03
69173;BME280;56280;49.662;8.408;2023-04-01T17:25:36;99334.28;;;12.30;66.65
69173;BME280;56280;49.662;8.408;2023-04-01T17:28:05;99410.78;;;12.87;66.61
69173;BME280;56280;49.662;8.408;2023-04-01T17:30:39;99420.59;;;12.70;67.11
69173;BME280;56280;49.662;8.408;2023-04-01T17:35:57;99433.22;;;12.60;67.50
69173;BME280;56280;49.662;8.408;2023-04-01T17:38:56;99423.75;;;12.66;67.01
69173;BME280;56280;49.662;8.408;2023-04-01T17:44:37;99436.34;;;12.47;67.08
69173;BME280;56280;49.662;8.408;2023-04-01T17:53:02;99446.41;;;12.19;68.35
69173;BME280;56280;49.662;8.408;2023-04-01T17:58:33;99447.78;;;12.31;67.63
69173;BME280;56280;49.662;8.408;2023-04-01T18:01:06;99468.50;;;12.54;67.03
69173;BME280;56280;49.662;8.408;2023-04-01T18:04:13;99474.59;;;12.38;67.00
69173;BME280;56280;49.662;8.408;2023-04-01T18:12:19;99483.66;;;12.11;68.21
69173;BME280;56280;49.662;8.408;2023-04-01T18:17:44;99489.41;;;11.98;69.38
69173;BME280;56280;49.662;8.408;2023-04-01T18:20:54;99497.34;;;12.24;68.43
69173;BME280;56280;49.662;8.408;2023-04-01T18:26:29;99483.47;;;12.12;68.28
69173;BME280;56280;49.662;8.408;2023-04-01T18:29:02;99471.34;;;11.83;68.55
69173;BME280;56280;49.662;8.408;2023-04-01T18:31:42;99494.47;;;12.09;68.61
69173;BME280;56280;49.662;8.408;2023-04-01T18:34:39;99521.75;;;12.11;68.68
69173;BME280;56280;49.662;8.408;2023-04-01T18:45:28;99535.38;;;12.08;68.69
69173;BME280;56280;49.662;8.408;2023-04-01T18:48:30;99546.50;;;12.03;69.09
69173;BME280;56280;49.662;8.408;2023-04-01T18:51:01;99536.47;;;11.97;68.92
69173;BME280;56280;49.662;8.408;2023-04-01T18:53:43;99540.56;;;12.10;68.78
69173;BME280;56280;49.662;8.408;2023-04-01T18:56:34;99548.94;;;12.23;68.22
69173;BME280;56280;49.662;8.408;2023-04-01T18:59:05;99549.47;;;12.00;68.72
69173;BME280;56280;49.662;8.408;2023-04-01T19:01:42;99544.78;;;11.94;68.97
69173;BME280;56280;49.662;8.408;2023-04-01T19:07:00;99560.34;;;11.89;69.22
69173;BME280;56280;49.662;8.408;2023-04-01T19:09:44;99559.91;;;11.94;69.08
69173;BME280;56280;49.662;8.408;2023-04-01T19:15:02;99559.91;;;11.94;68.56
69173;BME280;56280;49.662;8.408;2023-04-01T19:20:27;99586.44;;;11.85;69.46
69173;BME280;56280;49.662;8.408;2023-04-01T19:23:24;99581.81;;;11.70;70.31
69173;BME280;56280;49.662;8.408;2023-04-01T19:25:58;99564.72;;;11.72;69.68
69173;BME280;56280;49.662;8.408;2023-04-01T19:31:11;99572.41;;;11.75;69.65
69173;BME280;56280;49.662;8.408;2023-04-01T19:34:05;99601.72;;;12.01;69.13
69173;BME280;56280;49.662;8.408;2023-04-01T19:37:08;99597.44;;;12.09;69.23
69173;BME280;56280;49.662;8.408;2023-04-01T19:48:08;99605.16;;;11.94;69.83
69173;BME280;56280;49.662;8.408;2023-04-01T19:50:50;99591.75;;;11.85;69.33
69173;BME280;56280;49.662;8.408;2023-04-01T19:54:03;99599.59;;;11.87;69.88
69173;BME280;56280;49.662;8.408;2023-04-01T19:56:20;99597.75;;;11.88;69.50
69173;BME280;56280;49.662;8.408;2023-04-01T19:58:55;99598.69;;;11.96;69.82
69173;BME280;56280;49.662;8.408;2023-04-01T20:01:41;99592.91;;;11.83;70.13
69173;BME280;56280;49.662;8.408;2023-04-01T20:04:17;99603.41;;;11.66;70.29
69173;BME280;56280;49.662;8.408;2023-04-01T20:06:54;99619.06;;;11.70;70.63
69173;BME280;56280;49.662;8.408;2023-04-01T20:09:39;99630.09;;;11.93;70.39
69173;BME280;56280;49.662;8.408;2023-04-01T20:14:57;99633.06;;;12.08;69.66
69173;BME280;56280;49.662;8.408;2023-04-01T20:17:40;99645.09;;;12.20;69.39
69173;BME280;56280;49.662;8.408;2023-04-01T20:25:21;99646.94;;;12.19;68.92
69173;BME280;56280;49.662;8.408;2023-04-01T20:27:59;99650.53;;;12.10;69.35
69173;BME280;56280;49.662;8.408;2023-04-01T20:30:38;99644.84;;;11.87;70.16
69173;BME280;56280;49.662;8.408;2023-04-01T20:33:20;99659.13;;;12.04;69.59
69173;BME280;56280;49.662;8.408;2023-04-01T20:36:16;99646.47;;;11.98;69.83
69173;BME280;56280;49.662;8.408;2023-04-01T20:39:04;99663.53;;;12.13;69.75
69173;BME280;56280;49.662;8.408;2023-04-01T20:53:20;99679.28;;;11.71;71.37
69173;BME280;56280;49.662;8.408;2023-04-01T20:58:35;99667.41;;;11.83;71.17